sensor_id;sensor_type;location;lat;lon;timestamp;P1;durP1;ratioP1;P2;durP2;ratioP2
72590;SDS011;60625;51.212;5.952;2023-04-24T00:01:04;6.80;;;3.70;;
72590;SDS011;60625;51.212;5.952;2023-04-24T00:06:07;6.40;;;3.30;;
72590;SDS011;60625;51.212;5.952;2023-04-24T00:11:08;7.70;;;3.90;;
72590;SDS011;60625;51.212;5.952;2023-04-24T00:16:09;10.60;;;3.20;;
72590;SDS011;60625;51.212;5.952;2023-04-24T00:21:10;12.00;;;4.60;;
72590;SDS011;60625;51.212;5.952;2023-04-24T00:26:11;8.70;;;3.90;;
72590;SDS011;60625;51.212;5.952;2023-04-24T00:31:12;8.80;;;4.90;;
72590;SDS011;60625;51.212;5.952;2023-04-24T00:36:12;15.40;;;5.20;;
72590;SDS011;60625;51.212;5.952;2023-04-24T00:41:13;9.60;;;4.60;;
72590;SDS011;60625;51.212;5.952;2023-04-24T00:46:13;9.20;;;4.50;;
72590;SDS011;60625;51.212;5.952;2023-04-24T00:51:14;10.30;;;4.40;;
72590;SDS011;60625;51.212;5.952;2023-04-24T00:56:15;8.50;;;4.50;;
72590;SDS011;60625;51.212;5.952;2023-04-24T01:01:15;9.10;;;4.80;;
72590;SDS011;60625;51.212;5.952;2023-04-24T01:06:16;12.30;;;5.40;;
72590;SDS011;60625;51.212;5.952;2023-04-24T01:11:18;14.80;;;5.70;;
72590;SDS011;60625;51.212;5.952;2023-04-24T01:16:19;12.00;;;5.90;;
72590;SDS011;60625;51.212;5.952;2023-04-24T01:21:21;13.80;;;7.70;;
72590;SDS011;60625;51.212;5.952;2023-04-24T01:26:24;15.70;;;7.60;;
72590;SDS011;60625;51.212;5.952;2023-04-24T01:31:26;13.80;;;7.50;;
72590;SDS011;60625;51.212;5.952;2023-04-24T01:36:27;15.70;;;7.20;;
72590;SDS011;60625;51.212;5.952;2023-04-24T01:41:30;14.30;;;7.50;;
72590;SDS011;60625;51.212;5.952;2023-04-24T01:46:30;16.30;;;8.50;;
72590;SDS011;60625;51.212;5.952;2023-04-24T01:51:31;19.30;;;9.60;;
72590;SDS011;60625;51.212;5.952;2023-04-24T01:56:36;17.60;;;8.90;;
72590;SDS011;60625;51.212;5.952;2023-04-24T02:01:40;20.10;;;9.90;;
72590;SDS011;60625;51.212;5.952;2023-04-24T02:06:41;19.20;;;8.80;;
72590;SDS011;60625;51.212;5.952;2023-04-24T02:11:41;20.80;;;9.00;;
72590;SDS011;60625;51.212;5.952;2023-04-24T02:16:42;20.50;;;9.80;;
72590;SDS011;60625;51.212;5.952;2023-04-24T02:21:44;20.80;;;9.30;;
72590;SDS011;60625;51.212;5.952;2023-04-24T02:26:44;17.60;;;9.40;;
72590;SDS011;60625;51.212;5.952;2023-04-24T02:31:44;19.40;;;9.50;;
72590;SDS011;60625;51.212;5.952;2023-04-24T02:36:48;19.80;;;9.80;;
72590;SDS011;60625;51.212;5.952;2023-04-24T02:41:49;20.50;;;8.80;;
72590;SDS011;60625;51.212;5.952;2023-04-24T02:46:50;16.10;;;8.70;;
72590;SDS011;60625;51.212;5.952;2023-04-24T02:51:50;16.50;;;9.20;;
72590;SDS011;60625;51.212;5.952;2023-04-24T02:56:51;18.40;;;7.80;;
72590;SDS011;60625;51.212;5.952;2023-04-24T03:01:51;18.30;;;9.60;;
72590;SDS011;60625;51.212;5.952;2023-04-24T03:06:52;15.70;;;8.90;;
72590;SDS011;60625;51.212;5.952;2023-04-24T03:11:55;15.30;;;8.90;;
72590;SDS011;60625;51.212;5.952;2023-04-24T03:16:58;18.10;;;8.60;;
72590;SDS011;60625;51.212;5.952;2023-04-24T03:22:01;16.20;;;8.10;;
72590;SDS011;60625;51.212;5.952;2023-04-24T03:27:04;15.50;;;8.50;;
72590;SDS011;60625;51.212;5.952;2023-04-24T03:32:19;15.70;;;7.50;;
72590;SDS011;60625;51.212;5.952;2023-04-24T03:37:20;12.40;;;7.10;;
72590;SDS011;60625;51.212;5.952;2023-04-24T03:42:28;16.40;;;7.10;;
72590;SDS011;60625;51.212;5.952;2023-04-24T03:47:29;12.30;;;6.40;;
72590;SDS011;60625;51.212;5.952;2023-04-24T03:52:32;16.50;;;7.70;;
72590;SDS011;60625;51.212;5.952;2023-04-24T03:57:33;12.70;;;7.20;;
72590;SDS011;60625;51.212;5.952;2023-04-24T04:02:44;13.80;;;7.30;;
72590;SDS011;60625;51.212;5.952;2023-04-24T04:07:44;15.50;;;7.30;;
72590;SDS011;60625;51.212;5.952;2023-04-24T04:12:46;13.30;;;8.20;;
72590;SDS011;60625;51.212;5.952;2023-04-24T04:17:46;12.30;;;6.70;;
72590;SDS011;60625;51.212;5.952;2023-04-24T04:22:47;14.10;;;7.00;;
72590;SDS011;60625;51.212;5.952;2023-04-24T04:27:51;15.10;;;8.10;;
72590;SDS011;60625;51.212;5.952;2023-04-24T04:32:52;14.00;;;7.50;;
72590;SDS011;60625;51.212;5.952;2023-04-24T04:37:53;13.50;;;7.50;;
72590;SDS011;60625;51.212;5.952;2023-04-24T04:43:12;15.70;;;7.50;;
72590;SDS011;60625;51.212;5.952;2023-04-24T04:48:22;11.40;;;6.30;;
72590;SDS011;60625;51.212;5.952;2023-04-24T04:53:23;13.80;;;7.00;;
72590;SDS011;60625;51.212;5.952;2023-04-24T04:58:24;12.50;;;6.80;;
72590;SDS011;60625;51.212;5.952;2023-04-24T05:03:28;13.10;;;7.00;;
72590;SDS011;60625;51.212;5.952;2023-04-24T05:08:33;12.90;;;7.20;;
72590;SDS011;60625;51.212;5.952;2023-04-24T05:13:35;13.20;;;7.90;;
72590;SDS011;60625;51.212;5.952;2023-04-24T05:18:37;14.10;;;6.70;;
72590;SDS011;60625;51.212;5.952;2023-04-24T05:23:38;17.10;;;7.40;;
72590;SDS011;60625;51.212;5.952;2023-04-24T05:28:39;11.60;;;6.40;;
72590;SDS011;60625;51.212;5.952;2023-04-24T05:33:43;9.80;;;5.70;;
72590;SDS011;60625;51.212;5.952;2023-04-24T05:38:44;10.40;;;5.80;;
72590;SDS011;60625;51.212;5.952;2023-04-24T05:43:45;10.90;;;5.10;;
72590;SDS011;60625;51.212;5.952;2023-04-24T05:48:45;9.90;;;5.00;;
72590;SDS011;60625;51.212;5.952;2023-04-24T05:53:46;9.90;;;4.90;;
72590;SDS011;60625;51.212;5.952;2023-04-24T05:58:47;6.70;;;3.90;;
72590;SDS011;60625;51.212;5.952;2023-04-24T06:03:48;8.20;;;3.70;;
72590;SDS011;60625;51.212;5.952;2023-04-24T06:08:48;8.80;;;3.50;;
72590;SDS011;60625;51.212;5.952;2023-04-24T06:13:50;6.60;;;2.40;;
72590;SDS011;60625;51.212;5.952;2023-04-24T06:19:16;6.00;;;2.70;;
72590;SDS011;60625;51.212;5.952;2023-04-24T06:24:17;5.50;;;2.50;;
72590;SDS011;60625;51.212;5.952;2023-04-24T06:29:18;8.00;;;2.70;;
72590;SDS011;60625;51.212;5.952;2023-04-24T06:34:18;4.10;;;1.60;;
72590;SDS011;60625;51.212;5.952;2023-04-24T06:39:18;3.30;;;1.00;;
72590;SDS011;60625;51.212;5.952;2023-04-24T06:44:19;3.10;;;0.90;;
72590;SDS011;60625;51.212;5.952;2023-04-24T06:49:20;3.10;;;0.90;;
72590;SDS011;60625;51.212;5.952;2023-04-24T06:54:20;2.30;;;0.70;;
72590;SDS011;60625;51.212;5.952;2023-04-24T06:59:21;5.00;;;0.70;;
72590;SDS011;60625;51.212;5.952;2023-04-24T07:04:22;2.40;;;0.60;;
72590;SDS011;60625;51.212;5.952;2023-04-24T07:09:23;5.00;;;1.10;;
72590;SDS011;60625;51.212;5.952;2023-04-24T07:14:25;5.10;;;1.60;;
72590;SDS011;60625;51.212;5.952;2023-04-24T07:19:26;4.50;;;1.90;;
72590;SDS011;60625;51.212;5.952;2023-04-24T07:24:26;5.90;;;2.90;;
72590;SDS011;60625;51.212;5.952;2023-04-24T07:29:26;5.90;;;2.90;;
72590;SDS011;60625;51.212;5.952;2023-04-24T07:34:27;5.20;;;2.90;;
72590;SDS011;60625;51.212;5.952;2023-04-24T07:39:27;7.10;;;3.40;;
72590;SDS011;60625;51.212;5.952;2023-04-24T07:44:29;10.90;;;3.70;;
72590;SDS011;60625;51.212;5.952;2023-04-24T07:49:30;9.20;;;4.20;;
72590;SDS011;60625;51.212;5.952;2023-04-24T07:54:30;10.30;;;4.20;;
72590;SDS011;60625;51.212;5.952;2023-04-24T07:59:30;10.60;;;3.90;;
72590;SDS011;60625;51.212;5.952;2023-04-24T08:04:31;7.60;;;4.40;;
72590;SDS011;60625;51.212;5.952;2023-04-24T08:09:32;9.80;;;3.90;;
72590;SDS011;60625;51.212;5.952;2023-04-24T08:14:33;12.10;;;4.00;;
72590;SDS011;60625;51.212;5.952;2023-04-24T08:19:33;9.80;;;4.30;;
72590;SDS011;60625;51.212;5.952;2023-04-24T08:24:34;8.10;;;3.40;;
72590;SDS011;60625;51.212;5.952;2023-04-24T08:29:34;11.10;;;4.10;;
72590;SDS011;60625;51.212;5.952;2023-04-24T08:34:34;10.90;;;4.70;;
72590;SDS011;60625;51.212;5.952;2023-04-24T08:39:35;14.60;;;4.50;;
72590;SDS011;60625;51.212;5.952;2023-04-24T08:44:37;11.20;;;5.10;;
72590;SDS011;60625;51.212;5.952;2023-04-24T08:49:38;10.80;;;4.90;;
72590;SDS011;60625;51.212;5.952;2023-04-24T08:54:39;11.90;;;4.60;;
72590;SDS011;60625;51.212;5.952;2023-04-24T08:59:44;12.00;;;4.60;;
72590;SDS011;60625;51.212;5.952;2023-04-24T09:04:45;14.10;;;4.50;;
72590;SDS011;60625;51.212;5.952;2023-04-24T09:09:47;12.40;;;4.40;;
72590;SDS011;60625;51.212;5.952;2023-04-24T09:14:51;13.00;;;3.60;;
72590;SDS011;60625;51.212;5.952;2023-04-24T09:19:51;6.20;;;3.30;;
72590;SDS011;60625;51.212;5.952;2023-04-24T09:25:08;10.00;;;3.70;;
72590;SDS011;60625;51.212;5.952;2023-04-24T09:30:12;9.10;;;3.70;;
72590;SDS011;60625;51.212;5.952;2023-04-24T09:35:15;11.40;;;3.00;;
72590;SDS011;60625;51.212;5.952;2023-04-24T09:40:18;12.20;;;3.50;;
72590;SDS011;60625;51.212;5.952;2023-04-24T09:45:21;9.70;;;3.70;;
72590;SDS011;60625;51.212;5.952;2023-04-24T09:50:21;11.90;;;3.30;;
72590;SDS011;60625;51.212;5.952;2023-04-24T09:55:22;9.10;;;2.50;;
72590;SDS011;60625;51.212;5.952;2023-04-24T10:00:27;8.90;;;2.30;;
72590;SDS011;60625;51.212;5.952;2023-04-24T10:05:30;11.40;;;2.80;;
72590;SDS011;60625;51.212;5.952;2023-04-24T10:10:37;7.50;;;2.70;;
72590;SDS011;60625;51.212;5.952;2023-04-24T10:15:41;10.90;;;2.00;;
72590;SDS011;60625;51.212;5.952;2023-04-24T10:20:42;11.80;;;2.90;;
72590;SDS011;60625;51.212;5.952;2023-04-24T10:25:43;10.70;;;3.00;;
72590;SDS011;60625;51.212;5.952;2023-04-24T10:30:44;11.00;;;3.20;;
72590;SDS011;60625;51.212;5.952;2023-04-24T10:35:46;10.30;;;3.20;;
72590;SDS011;60625;51.212;5.952;2023-04-24T10:40:49;8.20;;;2.50;;
72590;SDS011;60625;51.212;5.952;2023-04-24T10:46:03;9.30;;;2.30;;
72590;SDS011;60625;51.212;5.952;2023-04-24T10:51:11;8.70;;;2.20;;
72590;SDS011;60625;51.212;5.952;2023-04-24T10:56:15;7.40;;;1.70;;
72590;SDS011;60625;51.212;5.952;2023-04-24T11:01:27;6.50;;;1.90;;
72590;SDS011;60625;51.212;5.952;2023-04-24T11:06:36;8.30;;;1.60;;
72590;SDS011;60625;51.212;5.952;2023-04-24T11:11:38;6.90;;;1.50;;
72590;SDS011;60625;51.212;5.952;2023-04-24T11:16:51;8.00;;;1.50;;
72590;SDS011;60625;51.212;5.952;2023-04-24T11:22:04;6.60;;;1.50;;
72590;SDS011;60625;51.212;5.952;2023-04-24T11:27:21;3.90;;;1.20;;
72590;SDS011;60625;51.212;5.952;2023-04-24T11:32:27;5.40;;;1.10;;
72590;SDS011;60625;51.212;5.952;2023-04-24T11:37:39;3.80;;;0.90;;
72590;SDS011;60625;51.212;5.952;2023-04-24T11:42:45;5.40;;;1.10;;
72590;SDS011;60625;51.212;5.952;2023-04-24T11:47:47;7.40;;;1.50;;
72590;SDS011;60625;51.212;5.952;2023-04-24T11:52:49;4.50;;;1.00;;
72590;SDS011;60625;51.212;5.952;2023-04-24T11:57:53;4.90;;;0.70;;
72590;SDS011;60625;51.212;5.952;2023-04-24T12:03:10;5.70;;;1.10;;
72590;SDS011;60625;51.212;5.952;2023-04-24T12:08:11;5.80;;;1.10;;
72590;SDS011;60625;51.212;5.952;2023-04-24T12:13:12;5.30;;;1.20;;
72590;SDS011;60625;51.212;5.952;2023-04-24T12:18:14;7.00;;;1.40;;
72590;SDS011;60625;51.212;5.952;2023-04-24T12:23:33;5.60;;;1.40;;
72590;SDS011;60625;51.212;5.952;2023-04-24T12:28:37;5.10;;;1.40;;
72590;SDS011;60625;51.212;5.952;2023-04-24T12:33:38;7.70;;;1.50;;
72590;SDS011;60625;51.212;5.952;2023-04-24T12:38:39;5.30;;;1.60;;
72590;SDS011;60625;51.212;5.952;2023-04-24T12:43:53;6.10;;;1.50;;
72590;SDS011;60625;51.212;5.952;2023-04-24T12:48:55;6.70;;;1.20;;
72590;SDS011;60625;51.212;5.952;2023-04-24T12:53:56;5.50;;;1.60;;
72590;SDS011;60625;51.212;5.952;2023-04-24T12:58:56;5.50;;;1.10;;
72590;SDS011;60625;51.212;5.952;2023-04-24T13:03:57;9.60;;;1.40;;
72590;SDS011;60625;51.212;5.952;2023-04-24T13:08:57;9.70;;;1.30;;
72590;SDS011;60625;51.212;5.952;2023-04-24T13:13:58;6.00;;;1.70;;
72590;SDS011;60625;51.212;5.952;2023-04-24T13:18:59;10.00;;;1.10;;
72590;SDS011;60625;51.212;5.952;2023-04-24T13:23:59;6.20;;;1.20;;
72590;SDS011;60625;51.212;5.952;2023-04-24T13:29:00;6.70;;;1.10;;
72590;SDS011;60625;51.212;5.952;2023-04-24T13:34:01;3.50;;;1.30;;
72590;SDS011;60625;51.212;5.952;2023-04-24T13:39:03;5.60;;;0.90;;
72590;SDS011;60625;51.212;5.952;2023-04-24T13:44:05;5.40;;;0.90;;
72590;SDS011;60625;51.212;5.952;2023-04-24T13:49:06;4.70;;;1.10;;
72590;SDS011;60625;51.212;5.952;2023-04-24T13:54:07;4.80;;;1.00;;
72590;SDS011;60625;51.212;5.952;2023-04-24T13:59:08;5.20;;;1.40;;
72590;SDS011;60625;51.212;5.952;2023-04-24T14:04:08;6.50;;;1.10;;
72590;SDS011;60625;51.212;5.952;2023-04-24T14:09:09;4.30;;;1.10;;
72590;SDS011;60625;51.212;5.952;2023-04-24T14:14:10;4.40;;;0.90;;
72590;SDS011;60625;51.212;5.952;2023-04-24T14:19:11;5.30;;;1.00;;
72590;SDS011;60625;51.212;5.952;2023-04-24T14:24:11;2.80;;;0.90;;
72590;SDS011;60625;51.212;5.952;2023-04-24T14:29:12;3.10;;;0.80;;
72590;SDS011;60625;51.212;5.952;2023-04-24T14:34:13;3.40;;;0.90;;
72590;SDS011;60625;51.212;5.952;2023-04-24T14:39:14;7.20;;;1.10;;
72590;SDS011;60625;51.212;5.952;2023-04-24T14:44:14;6.10;;;1.40;;
72590;SDS011;60625;51.212;5.952;2023-04-24T14:49:15;4.00;;;0.90;;
72590;SDS011;60625;51.212;5.952;2023-04-24T14:54:16;8.20;;;1.50;;
72590;SDS011;60625;51.212;5.952;2023-04-24T14:59:16;5.50;;;1.10;;
72590;SDS011;60625;51.212;5.952;2023-04-24T15:04:16;4.90;;;1.30;;
72590;SDS011;60625;51.212;5.952;2023-04-24T15:09:17;6.10;;;1.50;;
72590;SDS011;60625;51.212;5.952;2023-04-24T15:14:18;8.10;;;1.50;;
72590;SDS011;60625;51.212;5.952;2023-04-24T15:19:19;6.00;;;1.40;;
72590;SDS011;60625;51.212;5.952;2023-04-24T15:24:19;4.90;;;1.40;;
72590;SDS011;60625;51.212;5.952;2023-04-24T15:29:20;4.50;;;1.10;;
72590;SDS011;60625;51.212;5.952;2023-04-24T15:34:20;4.80;;;1.30;;
72590;SDS011;60625;51.212;5.952;2023-04-24T15:39:22;5.10;;;1.50;;
72590;SDS011;60625;51.212;5.952;2023-04-24T15:44:23;6.90;;;1.10;;
72590;SDS011;60625;51.212;5.952;2023-04-24T15:49:24;4.10;;;1.10;;
72590;SDS011;60625;51.212;5.952;2023-04-24T15:54:25;4.00;;;1.30;;
72590;SDS011;60625;51.212;5.952;2023-04-24T15:59:25;7.90;;;1.30;;
72590;SDS011;60625;51.212;5.952;2023-04-24T16:04:27;5.30;;;1.00;;
72590;SDS011;60625;51.212;5.952;2023-04-24T16:09:28;5.10;;;1.20;;
72590;SDS011;60625;51.212;5.952;2023-04-24T16:14:28;4.00;;;1.30;;
72590;SDS011;60625;51.212;5.952;2023-04-24T16:19:30;6.00;;;1.30;;
72590;SDS011;60625;51.212;5.952;2023-04-24T16:24:31;5.50;;;1.40;;
72590;SDS011;60625;51.212;5.952;2023-04-24T16:29:31;4.80;;;1.40;;
72590;SDS011;60625;51.212;5.952;2023-04-24T16:34:31;3.60;;;1.00;;
72590;SDS011;60625;51.212;5.952;2023-04-24T16:39:32;5.60;;;1.30;;
72590;SDS011;60625;51.212;5.952;2023-04-24T16:44:33;5.40;;;1.10;;
72590;SDS011;60625;51.212;5.952;2023-04-24T16:49:34;4.90;;;1.30;;
72590;SDS011;60625;51.212;5.952;2023-04-24T16:54:35;4.60;;;0.80;;
72590;SDS011;60625;51.212;5.952;2023-04-24T16:59:37;5.80;;;1.60;;
72590;SDS011;60625;51.212;5.952;2023-04-24T17:04:37;6.00;;;1.20;;
72590;SDS011;60625;51.212;5.952;2023-04-24T17:09:38;3.80;;;1.10;;
72590;SDS011;60625;51.212;5.952;2023-04-24T17:14:38;3.00;;;0.90;;
72590;SDS011;60625;51.212;5.952;2023-04-24T17:19:39;4.40;;;0.80;;
72590;SDS011;60625;51.212;5.952;2023-04-24T17:24:40;4.60;;;1.30;;
72590;SDS011;60625;51.212;5.952;2023-04-24T17:29:40;5.40;;;1.30;;
72590;SDS011;60625;51.212;5.952;2023-04-24T17:34:41;3.70;;;0.80;;
72590;SDS011;60625;51.212;5.952;2023-04-24T17:39:41;4.50;;;1.00;;
72590;SDS011;60625;51.212;5.952;2023-04-24T17:44:42;5.80;;;1.30;;
72590;SDS011;60625;51.212;5.952;2023-04-24T17:49:43;5.30;;;1.00;;
72590;SDS011;60625;51.212;5.952;2023-04-24T17:54:43;4.60;;;1.10;;
72590;SDS011;60625;51.212;5.952;2023-04-24T17:59:44;5.10;;;1.30;;
72590;SDS011;60625;51.212;5.952;2023-04-24T18:04:45;5.90;;;1.20;;
72590;SDS011;60625;51.212;5.952;2023-04-24T18:09:45;6.10;;;1.40;;
72590;SDS011;60625;51.212;5.952;2023-04-24T18:14:45;6.10;;;1.30;;
72590;SDS011;60625;51.212;5.952;2023-04-24T18:19:46;4.40;;;1.10;;
72590;SDS011;60625;51.212;5.952;2023-04-24T18:24:47;6.50;;;1.40;;
72590;SDS011;60625;51.212;5.952;2023-04-24T18:29:47;7.40;;;1.90;;
72590;SDS011;60625;51.212;5.952;2023-04-24T18:34:48;7.20;;;1.30;;
72590;SDS011;60625;51.212;5.952;2023-04-24T18:39:48;7.60;;;1.20;;
72590;SDS011;60625;51.212;5.952;2023-04-24T18:44:49;8.30;;;1.60;;
72590;SDS011;60625;51.212;5.952;2023-04-24T18:49:51;4.80;;;1.20;;
72590;SDS011;60625;51.212;5.952;2023-04-24T18:54:51;5.00;;;1.50;;
72590;SDS011;60625;51.212;5.952;2023-04-24T18:59:51;5.00;;;1.20;;
72590;SDS011;60625;51.212;5.952;2023-04-24T19:04:52;6.10;;;1.70;;
72590;SDS011;60625;51.212;5.952;2023-04-24T19:09:52;8.10;;;1.50;;
72590;SDS011;60625;51.212;5.952;2023-04-24T19:14:53;9.70;;;3.10;;
72590;SDS011;60625;51.212;5.952;2023-04-24T19:19:55;11.70;;;4.10;;
72590;SDS011;60625;51.212;5.952;2023-04-24T19:24:56;9.10;;;3.20;;
72590;SDS011;60625;51.212;5.952;2023-04-24T19:29:57;8.20;;;1.90;;
72590;SDS011;60625;51.212;5.952;2023-04-24T19:34:58;8.70;;;2.40;;
72590;SDS011;60625;51.212;5.952;2023-04-24T19:39:58;7.80;;;1.80;;
72590;SDS011;60625;51.212;5.952;2023-04-24T19:44:59;6.90;;;2.50;;
72590;SDS011;60625;51.212;5.952;2023-04-24T19:50:00;6.00;;;2.00;;
72590;SDS011;60625;51.212;5.952;2023-04-24T19:55:01;11.00;;;2.10;;
72590;SDS011;60625;51.212;5.952;2023-04-24T20:00:02;8.10;;;1.60;;
72590;SDS011;60625;51.212;5.952;2023-04-24T20:05:05;13.40;;;2.60;;
72590;SDS011;60625;51.212;5.952;2023-04-24T20:10:07;12.80;;;2.60;;
72590;SDS011;60625;51.212;5.952;2023-04-24T20:15:08;7.40;;;1.80;;
72590;SDS011;60625;51.212;5.952;2023-04-24T20:20:10;10.30;;;2.30;;
72590;SDS011;60625;51.212;5.952;2023-04-24T20:25:11;7.40;;;2.10;;
72590;SDS011;60625;51.212;5.952;2023-04-24T20:30:14;8.30;;;2.10;;
72590;SDS011;60625;51.212;5.952;2023-04-24T20:35:15;6.90;;;2.00;;
72590;SDS011;60625;51.212;5.952;2023-04-24T20:40:16;9.00;;;2.50;;
72590;SDS011;60625;51.212;5.952;2023-04-24T20:45:18;10.80;;;2.20;;
72590;SDS011;60625;51.212;5.952;2023-04-24T20:50:19;11.00;;;2.20;;
72590;SDS011;60625;51.212;5.952;2023-04-24T20:55:19;6.20;;;2.10;;
72590;SDS011;60625;51.212;5.952;2023-04-24T21:00:20;7.60;;;2.30;;
72590;SDS011;60625;51.212;5.952;2023-04-24T21:05:21;9.70;;;1.60;;
72590;SDS011;60625;51.212;5.952;2023-04-24T21:10:24;10.00;;;2.30;;
72590;SDS011;60625;51.212;5.952;2023-04-24T21:15:25;7.50;;;2.50;;
72590;SDS011;60625;51.212;5.952;2023-04-24T21:20:27;10.60;;;2.80;;
72590;SDS011;60625;51.212;5.952;2023-04-24T21:25:28;14.00;;;3.20;;
72590;SDS011;60625;51.212;5.952;2023-04-24T21:30:29;7.20;;;2.20;;
72590;SDS011;60625;51.212;5.952;2023-04-24T21:35:30;9.70;;;2.50;;
72590;SDS011;60625;51.212;5.952;2023-04-24T21:40:30;9.60;;;2.60;;
72590;SDS011;60625;51.212;5.952;2023-04-24T21:45:31;8.90;;;2.50;;
72590;SDS011;60625;51.212;5.952;2023-04-24T21:50:31;8.50;;;2.80;;
72590;SDS011;60625;51.212;5.952;2023-04-24T21:55:32;10.50;;;2.70;;
72590;SDS011;60625;51.212;5.952;2023-04-24T22:00:32;10.90;;;2.80;;
72590;SDS011;60625;51.212;5.952;2023-04-24T22:05:33;11.80;;;3.10;;
72590;SDS011;60625;51.212;5.952;2023-04-24T22:10:33;12.00;;;4.00;;
72590;SDS011;60625;51.212;5.952;2023-04-24T22:15:35;10.90;;;3.00;;
72590;SDS011;60625;51.212;5.952;2023-04-24T22:20:36;11.20;;;2.80;;
72590;SDS011;60625;51.212;5.952;2023-04-24T22:25:36;11.70;;;3.40;;
72590;SDS011;60625;51.212;5.952;2023-04-24T22:30:37;12.60;;;2.80;;
72590;SDS011;60625;51.212;5.952;2023-04-24T22:35:37;14.10;;;3.70;;
72590;SDS011;60625;51.212;5.952;2023-04-24T22:40:38;9.00;;;3.00;;
72590;SDS011;60625;51.212;5.952;2023-04-24T22:45:39;10.00;;;2.80;;
72590;SDS011;60625;51.212;5.952;2023-04-24T22:50:40;8.10;;;2.80;;
72590;SDS011;60625;51.212;5.952;2023-04-24T22:55:41;16.50;;;3.70;;
72590;SDS011;60625;51.212;5.952;2023-04-24T23:00:42;12.40;;;3.50;;
72590;SDS011;60625;51.212;5.952;2023-04-24T23:05:43;12.60;;;3.70;;
72590;SDS011;60625;51.212;5.952;2023-04-24T23:10:43;13.20;;;3.60;;
72590;SDS011;60625;51.212;5.952;2023-04-24T23:15:43;15.20;;;3.50;;
72590;SDS011;60625;51.212;5.952;2023-04-24T23:20:44;12.50;;;3.30;;
72590;SDS011;60625;51.212;5.952;2023-04-24T23:25:45;11.20;;;3.40;;
72590;SDS011;60625;51.212;5.952;2023-04-24T23:30:45;16.60;;;3.50;;
72590;SDS011;60625;51.212;5.952;2023-04-24T23:35:46;13.50;;;3.50;;
72590;SDS011;60625;51.212;5.952;2023-04-24T23:40:46;16.20;;;3.90;;
72590;SDS011;60625;51.212;5.952;2023-04-24T23:45:49;10.50;;;3.50;;
72590;SDS011;60625;51.212;5.952;2023-04-24T23:50:50;18.10;;;3.70;;
72590;SDS011;60625;51.212;5.952;2023-04-24T23:55:50;12.70;;;3.60;;
